EHLWEHWO

Guest
Details From EHLW - Leeuwarden
To EHWO - Woensdrecht
Flight Number -
Tags generated
Created
Modified
Stats Distance 119 nm / 220 km
Max Altitude 12,800 ft / 3,901 m
Waypoints 3
Social Downloads 0
Likes 0
Share VATSIM

Download

Looking for another format? Having issues loading an existing format? Contact us
Advertisement - Login to hide

Notes

Basic altitude profile: - Ascent Rate: 2500ft/min - Ascent Speed: 250kts - Cruise Altitude: 35000ft - Cruise Speed: 420kts - Descent Rate: 1500ft/min - Descent Speed: 250kts Options: - Use NATs: yes - Use PACOTS: yes - Use low airways: no - Use high airways: yes

Route

EHLW PAM EHWO

ID Type Via Altitude Latitude Longitude Leg Dist Tot Dist Heading (true) Name
O EHLW APT - 0 ft / 0 m 53.22700˚ 5.75393˚ - 0 nm - Leeuwarden
PAM VOR - 12,800 ft / 3,901 m 52.33476˚ 5.09216˚ 58 nm 58 nm 204° / 204° PAMPUS VOR-DME
O EHWO APT - 0 ft / 0 m 51.44900˚ 4.34208˚ 60 nm 118 nm 208° / 207° Woensdrecht

Altitude Profile

Advertisement - Login to hide

EHLW

Details ICAO EHLW (LWR)
Name Leeuwarden
Region Netherlands
Timezone Europe/Amsterdam (UTC+2.0)
Stats Elevation 4 ft / 1 m (AMSL)
Location 53.226999° 5.753931°
Runways 2
Magnetic Variation 1.478° E

METAR

EHLW 261055Z AUTO 05011KT 010V120 9999 NCD 23/16 Q1022 BLU

Decode

TAF

Not found

Departure Runways

ID Width Length Bearing (true) Bearing (mag) Surface Threshold Offset Overrun Length
06 164 ft / 50 m 8,021 ft / 2,445 m 55.34° 53.86° Asphalt 847 ft / 258 m 1,053 ft / 321 m
09 164 ft / 50 m 6,554 ft / 1,998 m 90.52° 89.04° Asphalt 195 ft / 59 m 0 ft / 0 m
24 164 ft / 50 m 8,021 ft / 2,445 m 235.36° 233.88° Asphalt 1,053 ft / 321 m 810 ft / 247 m
27 164 ft / 50 m 6,554 ft / 1,998 m 270.54° 269.06° Asphalt 0 ft / 0 m 0 ft / 0 m

EHWO

Details ICAO EHWO (WOE)
Name Woensdrecht
Region Netherlands
Timezone Europe/Amsterdam (UTC+2.0)
Stats Elevation 63 ft / 19 m (AMSL)
Location 51.449000° 4.342084°
Runways 1
Magnetic Variation 1.107° E

METAR

EHWO 261055Z AUTO 07010KT 050V160 9999 NCD 26/16 Q1019 BLU

Decode

TAF

Not found

Destination Runways

ID Width Length Bearing (true) Bearing (mag) Surface Threshold Offset Overrun Length
07 148 ft / 45 m 7,974 ft / 2,430 m 69.45° 68.34° Asphalt 0 ft / 0 m 82 ft / 25 m
25 148 ft / 45 m 7,974 ft / 2,430 m 249.47° 248.36° Asphalt 0 ft / 0 m 82 ft / 25 m

Approach Navaids

Runway Type Ident Frequency Range Bearing (true) Bearing (mag) Slope Elevation
07 Localiser WDZ 108.15 MHz 18 nm / 33 km 69.06° 67.96° - 63 ft / 19 m (AMSL)
07 Glidescope WDZ 108.15 MHz 15 nm / 28 km 69.06° 67.96° 3.00° 63 ft / 19 m (AMSL)
25 Localiser WDO 108.15 MHz 18 nm / 33 km 249.53° 248.42° - 63 ft / 19 m (AMSL)
25 Glidescope WDO 108.15 MHz 15 nm / 28 km 249.53° 248.42° 3.00° 63 ft / 19 m (AMSL)

Popular Alternatives